Date,TemperatureHighF,TemperatureAvgF,TemperatureLowF,DewpointHighF,DewpointAvgF,DewpointLowF,HumidityHigh,HumidityAvg,HumidityLow,PressureMaxIn,PressureMinIn,WindSpeedMaxMPH,WindSpeedAvgMPH,GustSpeedMaxMPH,PrecipitationSumIn
2013-7-1,78,63,49,54,50,39,97,66,38,28.24,28.14,8,1,10,0.00
2013-7-2,79,61,40,51,44,36,97,57,28,28.20,28.09,8,0,10,0.00
2013-7-3,83,65,46,57,50,38,97,60,35,28.09,27.97,10,1,11,0.00
2013-7-4,81,70,58,63,53,36,94,59,35,27.97,27.88,14,2,15,0.23
2013-7-5,82,74,62,65,62,58,90,67,50,27.89,27.81,16,3,18,0.00
2013-7-6,84,70,64,70,65,61,98,84,56,27.93,27.83,14,1,14,1.42
2013-7-7,68,64,58,66,63,56,99,95,90,27.99,27.89,8,1,9,0.07
2013-7-8,79,65,56,66,60,55,98,88,60,28.03,27.97,6,1,7,0.01
2013-7-9,72,66,58,68,62,56,97,90,79,28.00,27.77,16,1,16,0.20
2013-7-11,79,72,62,60,57,53,80,59,45,28.09,27.98,12,2,12,0.00
2013-7-12,79,71,59,66,61,54,85,72,60,28.00,27.91,22,2,22,0.00
2013-7-13,83,71,64,73,66,62,96,86,70,28.11,27.92,12,2,16,0.08
2013-7-14,69,66,64,66,64,60,98,93,81,28.23,28.09,15,1,15,0.73
2013-7-15,69,67,65,68,66,62,99,96,92,28.27,28.21,9,0,11,0.09
2013-7-16,87,75,63,74,67,62,98,77,51,28.22,28.10,15,2,16,0.11
2013-7-17,76,70,63,70,66,62,97,88,70,28.23,28.13,7,0,7,0.18
2013-7-18,76,66,62,72,65,61,99,97,87,28.13,27.68,13,1,18,2.56
2013-7-19,73,66,60,66,59,49,99,79,50,27.83,27.61,19,3,19,0.02
2013-7-20,65,55,46,51,46,43,93,73,53,28.03,27.83,11,1,13,0.00
2013-7-21,69,56,44,53,47,40,94,72,50,28.03,27.86,11,1,11,0.00
2013-7-22,76,62,52,66,56,44,100,81,60,27.86,27.58,20,5,21,0.05
2013-7-23,66,57,47,52,48,45,96,74,56,28.02,27.78,20,4,20,0.00
2013-7-24,72,58,43,59,51,43,99,81,47,28.04,27.92,13,1,14,0.07
2013-7-25,68,59,54,62,57,53,98,94,78,27.93,27.88,10,1,11,0.36
2013-7-26,56,48,44,55,47,41,98,95,89,28.05,27.88,19,3,19,0.68
2013-7-27,51,47,44,50,46,43,98,97,95,27.98,27.83,16,3,19,0.32
2013-7-28,63,53,46,54,49,46,100,86,58,28.02,27.90,20,3,20,0.11
2013-7-29,75,60,42,57,51,41,99,74,43,28.09,28.01,8,0,10,0.00
2013-7-30,67,64,59,62,58,55,96,80,70,28.09,28.00,9,0,10,0.06
2013-7-31,70,63,54,60,55,49,98,76,49,28.01,27.89,22,3,22,0.00